sensor_id;sensor_type;location;lat;lon;timestamp;P1;durP1;ratioP1;P2;durP2;ratioP2
59006;SDS011;44792;52.760;6.726;2022-08-05T00:02:05;11.02;;;3.85;;
59006;SDS011;44792;52.760;6.726;2022-08-05T00:04:30;9.68;;;3.50;;
59006;SDS011;44792;52.760;6.726;2022-08-05T00:06:56;8.07;;;3.75;;
59006;SDS011;44792;52.760;6.726;2022-08-05T00:09:22;10.25;;;3.95;;
59006;SDS011;44792;52.760;6.726;2022-08-05T00:11:48;11.70;;;4.10;;
59006;SDS011;44792;52.760;6.726;2022-08-05T00:14:13;9.52;;;4.10;;
59006;SDS011;44792;52.760;6.726;2022-08-05T00:16:39;12.35;;;4.35;;
59006;SDS011;44792;52.760;6.726;2022-08-05T00:19:05;11.52;;;4.18;;
59006;SDS011;44792;52.760;6.726;2022-08-05T00:21:31;9.65;;;4.28;;
59006;SDS011;44792;52.760;6.726;2022-08-05T00:23:57;7.85;;;3.85;;
59006;SDS011;44792;52.760;6.726;2022-08-05T00:26:24;10.63;;;3.72;;
59006;SDS011;44792;52.760;6.726;2022-08-05T00:28:50;9.43;;;3.72;;
59006;SDS011;44792;52.760;6.726;2022-08-05T00:31:16;10.07;;;3.38;;
59006;SDS011;44792;52.760;6.726;2022-08-05T00:33:42;8.13;;;3.63;;
59006;SDS011;44792;52.760;6.726;2022-08-05T00:36:08;7.13;;;4.03;;
59006;SDS011;44792;52.760;6.726;2022-08-05T00:38:34;9.32;;;3.33;;
59006;SDS011;44792;52.760;6.726;2022-08-05T00:41:00;9.05;;;4.05;;
59006;SDS011;44792;52.760;6.726;2022-08-05T00:43:26;10.05;;;3.72;;
59006;SDS011;44792;52.760;6.726;2022-08-05T00:45:53;9.68;;;3.47;;
59006;SDS011;44792;52.760;6.726;2022-08-05T00:48:20;7.10;;;3.40;;
59006;SDS011;44792;52.760;6.726;2022-08-05T00:50:47;7.78;;;3.78;;
59006;SDS011;44792;52.760;6.726;2022-08-05T00:53:15;7.13;;;3.50;;
59006;SDS011;44792;52.760;6.726;2022-08-05T00:55:46;8.05;;;4.03;;
59006;SDS011;44792;52.760;6.726;2022-08-05T00:58:12;12.60;;;3.90;;
59006;SDS011;44792;52.760;6.726;2022-08-05T01:00:40;8.13;;;3.88;;
59006;SDS011;44792;52.760;6.726;2022-08-05T01:03:06;13.30;;;3.63;;
59006;SDS011;44792;52.760;6.726;2022-08-05T01:05:32;10.73;;;3.75;;
59006;SDS011;44792;52.760;6.726;2022-08-05T01:07:58;7.32;;;3.80;;
59006;SDS011;44792;52.760;6.726;2022-08-05T01:10:26;11.82;;;3.58;;
59006;SDS011;44792;52.760;6.726;2022-08-05T01:12:57;9.43;;;3.90;;
59006;SDS011;44792;52.760;6.726;2022-08-05T01:15:33;8.63;;;4.00;;
59006;SDS011;44792;52.760;6.726;2022-08-05T01:18:09;8.32;;;3.47;;
59006;SDS011;44792;52.760;6.726;2022-08-05T01:20:49;10.45;;;3.78;;
59006;SDS011;44792;52.760;6.726;2022-08-05T01:23:38;6.10;;;3.30;;
59006;SDS011;44792;52.760;6.726;2022-08-05T01:28:44;9.70;;;3.95;;
59006;SDS011;44792;52.760;6.726;2022-08-05T01:31:26;5.53;;;3.25;;
59006;SDS011;44792;52.760;6.726;2022-08-05T01:34:09;8.55;;;3.42;;
59006;SDS011;44792;52.760;6.726;2022-08-05T01:36:37;6.20;;;3.80;;
59006;SDS011;44792;52.760;6.726;2022-08-05T01:39:10;7.32;;;3.75;;
59006;SDS011;44792;52.760;6.726;2022-08-05T01:41:37;5.78;;;3.58;;
59006;SDS011;44792;52.760;6.726;2022-08-05T01:44:05;10.35;;;3.83;;
59006;SDS011;44792;52.760;6.726;2022-08-05T01:46:32;7.85;;;3.65;;
59006;SDS011;44792;52.760;6.726;2022-08-05T01:48:59;11.13;;;3.95;;
59006;SDS011;44792;52.760;6.726;2022-08-05T01:51:26;7.20;;;4.10;;
59006;SDS011;44792;52.760;6.726;2022-08-05T01:53:55;8.95;;;3.63;;
59006;SDS011;44792;52.760;6.726;2022-08-05T01:56:23;12.32;;;3.80;;
59006;SDS011;44792;52.760;6.726;2022-08-05T01:58:53;6.70;;;3.80;;
59006;SDS011;44792;52.760;6.726;2022-08-05T02:01:20;8.35;;;3.78;;
59006;SDS011;44792;52.760;6.726;2022-08-05T02:03:47;6.20;;;4.07;;
59006;SDS011;44792;52.760;6.726;2022-08-05T02:06:15;10.90;;;3.88;;
59006;SDS011;44792;52.760;6.726;2022-08-05T02:08:41;9.93;;;4.18;;
59006;SDS011;44792;52.760;6.726;2022-08-05T02:11:09;9.88;;;4.25;;
59006;SDS011;44792;52.760;6.726;2022-08-05T02:16:06;8.90;;;3.88;;
59006;SDS011;44792;52.760;6.726;2022-08-05T02:18:40;6.25;;;3.72;;
59006;SDS011;44792;52.760;6.726;2022-08-05T02:21:16;7.95;;;4.32;;
59006;SDS011;44792;52.760;6.726;2022-08-05T02:23:45;7.18;;;4.15;;
59006;SDS011;44792;52.760;6.726;2022-08-05T02:26:18;10.65;;;4.13;;
59006;SDS011;44792;52.760;6.726;2022-08-05T02:28:47;12.43;;;4.28;;
59006;SDS011;44792;52.760;6.726;2022-08-05T02:31:14;7.47;;;3.83;;
59006;SDS011;44792;52.760;6.726;2022-08-05T02:33:47;6.85;;;3.90;;
59006;SDS011;44792;52.760;6.726;2022-08-05T02:36:16;7.57;;;3.83;;
59006;SDS011;44792;52.760;6.726;2022-08-05T02:38:45;5.22;;;3.80;;
59006;SDS011;44792;52.760;6.726;2022-08-05T02:41:12;8.98;;;3.88;;
59006;SDS011;44792;52.760;6.726;2022-08-05T02:43:40;7.32;;;3.78;;
59006;SDS011;44792;52.760;6.726;2022-08-05T02:46:07;7.28;;;3.78;;
59006;SDS011;44792;52.760;6.726;2022-08-05T02:48:33;11.45;;;3.38;;
59006;SDS011;44792;52.760;6.726;2022-08-05T02:51:01;6.90;;;3.60;;
59006;SDS011;44792;52.760;6.726;2022-08-05T02:53:31;8.40;;;3.50;;
59006;SDS011;44792;52.760;6.726;2022-08-05T02:55:58;6.43;;;3.45;;
59006;SDS011;44792;52.760;6.726;2022-08-05T02:58:25;7.60;;;3.35;;
59006;SDS011;44792;52.760;6.726;2022-08-05T03:00:52;6.05;;;3.40;;
59006;SDS011;44792;52.760;6.726;2022-08-05T03:03:22;8.52;;;3.97;;
59006;SDS011;44792;52.760;6.726;2022-08-05T03:05:49;8.25;;;3.63;;
59006;SDS011;44792;52.760;6.726;2022-08-05T03:08:16;12.85;;;4.00;;
59006;SDS011;44792;52.760;6.726;2022-08-05T03:10:43;5.65;;;4.05;;
59006;SDS011;44792;52.760;6.726;2022-08-05T03:13:13;5.47;;;3.90;;
59006;SDS011;44792;52.760;6.726;2022-08-05T03:15:43;10.75;;;4.13;;
59006;SDS011;44792;52.760;6.726;2022-08-05T03:18:09;10.73;;;3.83;;
59006;SDS011;44792;52.760;6.726;2022-08-05T03:20:35;7.53;;;3.53;;
59006;SDS011;44792;52.760;6.726;2022-08-05T03:23:02;9.05;;;3.78;;
59006;SDS011;44792;52.760;6.726;2022-08-05T03:25:29;8.15;;;3.80;;
59006;SDS011;44792;52.760;6.726;2022-08-05T03:27:55;7.78;;;3.50;;
59006;SDS011;44792;52.760;6.726;2022-08-05T03:30:22;8.95;;;4.00;;
59006;SDS011;44792;52.760;6.726;2022-08-05T03:32:48;6.20;;;3.67;;
59006;SDS011;44792;52.760;6.726;2022-08-05T03:35:14;7.80;;;3.50;;
59006;SDS011;44792;52.760;6.726;2022-08-05T03:37:40;6.43;;;3.55;;
59006;SDS011;44792;52.760;6.726;2022-08-05T03:40:05;8.25;;;3.30;;
59006;SDS011;44792;52.760;6.726;2022-08-05T03:42:34;6.53;;;3.55;;
59006;SDS011;44792;52.760;6.726;2022-08-05T03:45:00;6.70;;;3.15;;
59006;SDS011;44792;52.760;6.726;2022-08-05T03:47:25;10.25;;;4.13;;
59006;SDS011;44792;52.760;6.726;2022-08-05T03:49:51;7.45;;;3.63;;
59006;SDS011;44792;52.760;6.726;2022-08-05T03:52:18;8.02;;;3.60;;
59006;SDS011;44792;52.760;6.726;2022-08-05T03:54:52;9.00;;;3.30;;
59006;SDS011;44792;52.760;6.726;2022-08-05T03:57:24;8.60;;;3.47;;
59006;SDS011;44792;52.760;6.726;2022-08-05T04:00:04;7.30;;;3.40;;
59006;SDS011;44792;52.760;6.726;2022-08-05T04:02:32;9.35;;;3.88;;
59006;SDS011;44792;52.760;6.726;2022-08-05T04:04:59;6.50;;;2.97;;
59006;SDS011;44792;52.760;6.726;2022-08-05T04:07:26;3.97;;;3.10;;
59006;SDS011;44792;52.760;6.726;2022-08-05T04:09:53;6.03;;;3.67;;
59006;SDS011;44792;52.760;6.726;2022-08-05T04:12:19;7.60;;;3.28;;
59006;SDS011;44792;52.760;6.726;2022-08-05T04:14:45;6.68;;;3.30;;
59006;SDS011;44792;52.760;6.726;2022-08-05T04:17:11;10.15;;;4.13;;
59006;SDS011;44792;52.760;6.726;2022-08-05T04:19:46;9.52;;;3.58;;
59006;SDS011;44792;52.760;6.726;2022-08-05T04:22:12;5.93;;;3.22;;
59006;SDS011;44792;52.760;6.726;2022-08-05T04:24:42;10.27;;;3.30;;
59006;SDS011;44792;52.760;6.726;2022-08-05T04:27:09;7.63;;;3.15;;
59006;SDS011;44792;52.760;6.726;2022-08-05T04:29:38;13.35;;;3.80;;
59006;SDS011;44792;52.760;6.726;2022-08-05T04:32:05;11.40;;;4.57;;
59006;SDS011;44792;52.760;6.726;2022-08-05T04:34:31;7.00;;;3.53;;
59006;SDS011;44792;52.760;6.726;2022-08-05T04:36:57;8.23;;;3.53;;
59006;SDS011;44792;52.760;6.726;2022-08-05T04:39:23;7.25;;;3.45;;
59006;SDS011;44792;52.760;6.726;2022-08-05T04:41:48;10.30;;;3.60;;
59006;SDS011;44792;52.760;6.726;2022-08-05T04:44:14;7.32;;;3.47;;
59006;SDS011;44792;52.760;6.726;2022-08-05T04:46:40;11.10;;;3.95;;
59006;SDS011;44792;52.760;6.726;2022-08-05T04:49:06;5.25;;;3.38;;
59006;SDS011;44792;52.760;6.726;2022-08-05T04:51:32;9.32;;;3.45;;
59006;SDS011;44792;52.760;6.726;2022-08-05T04:53:58;5.55;;;3.63;;
59006;SDS011;44792;52.760;6.726;2022-08-05T04:56:24;10.80;;;3.92;;
59006;SDS011;44792;52.760;6.726;2022-08-05T04:58:50;8.65;;;3.72;;
59006;SDS011;44792;52.760;6.726;2022-08-05T05:01:16;6.68;;;3.60;;
59006;SDS011;44792;52.760;6.726;2022-08-05T05:03:42;6.13;;;3.88;;
59006;SDS011;44792;52.760;6.726;2022-08-05T05:06:11;7.20;;;4.15;;
59006;SDS011;44792;52.760;6.726;2022-08-05T05:08:37;9.75;;;4.30;;
59006;SDS011;44792;52.760;6.726;2022-08-05T05:11:03;10.45;;;3.83;;
59006;SDS011;44792;52.760;6.726;2022-08-05T05:13:28;8.90;;;3.97;;
59006;SDS011;44792;52.760;6.726;2022-08-05T05:15:54;12.68;;;3.78;;
59006;SDS011;44792;52.760;6.726;2022-08-05T05:18:20;11.52;;;3.53;;
59006;SDS011;44792;52.760;6.726;2022-08-05T05:20:46;9.40;;;3.72;;
59006;SDS011;44792;52.760;6.726;2022-08-05T05:23:13;6.93;;;3.58;;
59006;SDS011;44792;52.760;6.726;2022-08-05T05:25:39;11.80;;;3.50;;
59006;SDS011;44792;52.760;6.726;2022-08-05T05:28:05;7.05;;;3.90;;
59006;SDS011;44792;52.760;6.726;2022-08-05T05:30:31;5.10;;;3.45;;
59006;SDS011;44792;52.760;6.726;2022-08-05T05:32:58;10.93;;;3.47;;
59006;SDS011;44792;52.760;6.726;2022-08-05T05:35:24;7.05;;;3.42;;
59006;SDS011;44792;52.760;6.726;2022-08-05T05:37:53;7.22;;;3.95;;
59006;SDS011;44792;52.760;6.726;2022-08-05T05:40:22;10.32;;;4.22;;
59006;SDS011;44792;52.760;6.726;2022-08-05T05:42:49;11.73;;;3.90;;
59006;SDS011;44792;52.760;6.726;2022-08-05T05:45:15;8.32;;;3.92;;
59006;SDS011;44792;52.760;6.726;2022-08-05T05:47:41;5.53;;;3.53;;
59006;SDS011;44792;52.760;6.726;2022-08-05T05:50:08;7.97;;;3.38;;
59006;SDS011;44792;52.760;6.726;2022-08-05T05:52:35;10.68;;;3.50;;
59006;SDS011;44792;52.760;6.726;2022-08-05T05:55:02;11.52;;;3.28;;
59006;SDS011;44792;52.760;6.726;2022-08-05T05:57:29;5.55;;;3.33;;
59006;SDS011;44792;52.760;6.726;2022-08-05T05:59:55;9.07;;;3.70;;
59006;SDS011;44792;52.760;6.726;2022-08-05T06:02:20;3.67;;;3.15;;
59006;SDS011;44792;52.760;6.726;2022-08-05T06:04:46;4.55;;;3.03;;
59006;SDS011;44792;52.760;6.726;2022-08-05T06:07:11;8.70;;;3.30;;
59006;SDS011;44792;52.760;6.726;2022-08-05T06:09:37;11.35;;;3.80;;
59006;SDS011;44792;52.760;6.726;2022-08-05T06:12:03;8.85;;;3.40;;
59006;SDS011;44792;52.760;6.726;2022-08-05T06:14:29;10.18;;;3.97;;
59006;SDS011;44792;52.760;6.726;2022-08-05T06:16:55;11.38;;;3.63;;
59006;SDS011;44792;52.760;6.726;2022-08-05T06:19:21;11.63;;;4.22;;
59006;SDS011;44792;52.760;6.726;2022-08-05T06:21:46;8.27;;;3.92;;
59006;SDS011;44792;52.760;6.726;2022-08-05T06:24:12;5.32;;;3.60;;
59006;SDS011;44792;52.760;6.726;2022-08-05T06:26:40;10.32;;;3.78;;
59006;SDS011;44792;52.760;6.726;2022-08-05T06:29:06;12.38;;;3.92;;
59006;SDS011;44792;52.760;6.726;2022-08-05T06:31:32;7.88;;;3.65;;
59006;SDS011;44792;52.760;6.726;2022-08-05T06:33:57;5.15;;;3.28;;
59006;SDS011;44792;52.760;6.726;2022-08-05T06:36:23;9.30;;;4.00;;
59006;SDS011;44792;52.760;6.726;2022-08-05T06:38:48;9.88;;;3.90;;
59006;SDS011;44792;52.760;6.726;2022-08-05T06:41:18;7.82;;;4.22;;
59006;SDS011;44792;52.760;6.726;2022-08-05T06:43:44;10.43;;;4.10;;
59006;SDS011;44792;52.760;6.726;2022-08-05T06:46:10;7.10;;;3.65;;
59006;SDS011;44792;52.760;6.726;2022-08-05T06:48:35;9.00;;;3.92;;
59006;SDS011;44792;52.760;6.726;2022-08-05T06:51:02;8.38;;;3.55;;
59006;SDS011;44792;52.760;6.726;2022-08-05T06:53:28;9.23;;;3.60;;
59006;SDS011;44792;52.760;6.726;2022-08-05T06:55:54;9.45;;;3.42;;
59006;SDS011;44792;52.760;6.726;2022-08-05T06:58:23;8.82;;;3.72;;
59006;SDS011;44792;52.760;6.726;2022-08-05T07:00:50;7.85;;;3.63;;
59006;SDS011;44792;52.760;6.726;2022-08-05T07:03:16;9.70;;;3.65;;
59006;SDS011;44792;52.760;6.726;2022-08-05T07:05:41;6.20;;;3.60;;
59006;SDS011;44792;52.760;6.726;2022-08-05T07:08:07;8.20;;;3.75;;
59006;SDS011;44792;52.760;6.726;2022-08-05T07:10:32;10.00;;;4.00;;
59006;SDS011;44792;52.760;6.726;2022-08-05T07:12:58;8.15;;;3.60;;
59006;SDS011;44792;52.760;6.726;2022-08-05T07:15:42;11.23;;;3.85;;
59006;SDS011;44792;52.760;6.726;2022-08-05T07:18:26;7.57;;;3.40;;
59006;SDS011;44792;52.760;6.726;2022-08-05T07:20:52;7.40;;;3.38;;
59006;SDS011;44792;52.760;6.726;2022-08-05T07:23:17;13.25;;;3.55;;
59006;SDS011;44792;52.760;6.726;2022-08-05T07:25:43;8.45;;;3.78;;
59006;SDS011;44792;52.760;6.726;2022-08-05T07:28:08;7.38;;;3.53;;
59006;SDS011;44792;52.760;6.726;2022-08-05T07:30:34;5.97;;;2.88;;
59006;SDS011;44792;52.760;6.726;2022-08-05T07:33:02;5.57;;;2.88;;
59006;SDS011;44792;52.760;6.726;2022-08-05T07:35:28;10.55;;;3.33;;
59006;SDS011;44792;52.760;6.726;2022-08-05T07:37:54;5.65;;;2.70;;
59006;SDS011;44792;52.760;6.726;2022-08-05T07:40:19;3.60;;;2.50;;
59006;SDS011;44792;52.760;6.726;2022-08-05T07:42:46;8.45;;;2.83;;
59006;SDS011;44792;52.760;6.726;2022-08-05T07:45:12;7.75;;;2.72;;
59006;SDS011;44792;52.760;6.726;2022-08-05T07:47:37;4.90;;;2.20;;
59006;SDS011;44792;52.760;6.726;2022-08-05T07:50:03;8.35;;;3.10;;
59006;SDS011;44792;52.760;6.726;2022-08-05T07:52:29;7.85;;;2.42;;
59006;SDS011;44792;52.760;6.726;2022-08-05T07:54:55;7.35;;;2.38;;
59006;SDS011;44792;52.760;6.726;2022-08-05T07:57:21;3.58;;;2.50;;
59006;SDS011;44792;52.760;6.726;2022-08-05T07:59:46;8.38;;;2.50;;
59006;SDS011;44792;52.760;6.726;2022-08-05T08:02:12;5.70;;;1.98;;
59006;SDS011;44792;52.760;6.726;2022-08-05T08:04:38;6.50;;;2.50;;
59006;SDS011;44792;52.760;6.726;2022-08-05T08:07:04;4.68;;;1.77;;
59006;SDS011;44792;52.760;6.726;2022-08-05T08:09:30;5.10;;;1.52;;
59006;SDS011;44792;52.760;6.726;2022-08-05T08:11:55;4.80;;;1.63;;
59006;SDS011;44792;52.760;6.726;2022-08-05T08:14:21;7.78;;;1.85;;
59006;SDS011;44792;52.760;6.726;2022-08-05T08:16:46;4.68;;;1.67;;
59006;SDS011;44792;52.760;6.726;2022-08-05T08:19:12;3.35;;;1.45;;
59006;SDS011;44792;52.760;6.726;2022-08-05T08:21:38;4.68;;;1.60;;
59006;SDS011;44792;52.760;6.726;2022-08-05T08:24:04;2.55;;;1.50;;
59006;SDS011;44792;52.760;6.726;2022-08-05T08:26:30;8.48;;;2.10;;
59006;SDS011;44792;52.760;6.726;2022-08-05T08:28:56;2.67;;;1.60;;
59006;SDS011;44792;52.760;6.726;2022-08-05T08:31:23;8.32;;;2.03;;
59006;SDS011;44792;52.760;6.726;2022-08-05T08:33:48;4.97;;;1.52;;
59006;SDS011;44792;52.760;6.726;2022-08-05T08:36:14;3.97;;;1.60;;
59006;SDS011;44792;52.760;6.726;2022-08-05T08:38:40;3.13;;;1.25;;
59006;SDS011;44792;52.760;6.726;2022-08-05T08:41:07;4.72;;;1.23;;
59006;SDS011;44792;52.760;6.726;2022-08-05T08:43:35;3.25;;;2.20;;
59006;SDS011;44792;52.760;6.726;2022-08-05T08:46:02;2.03;;;1.38;;
59006;SDS011;44792;52.760;6.726;2022-08-05T08:48:28;6.28;;;1.40;;
59006;SDS011;44792;52.760;6.726;2022-08-05T08:50:56;3.13;;;1.40;;
59006;SDS011;44792;52.760;6.726;2022-08-05T08:53:23;3.08;;;1.25;;
59006;SDS011;44792;52.760;6.726;2022-08-05T08:55:51;4.15;;;1.30;;
59006;SDS011;44792;52.760;6.726;2022-08-05T08:58:16;3.95;;;1.20;;
59006;SDS011;44792;52.760;6.726;2022-08-05T09:00:42;4.22;;;1.58;;
59006;SDS011;44792;52.760;6.726;2022-08-05T09:03:09;3.78;;;1.20;;
59006;SDS011;44792;52.760;6.726;2022-08-05T09:05:35;5.32;;;1.27;;
59006;SDS011;44792;52.760;6.726;2022-08-05T09:08:01;2.35;;;1.05;;
59006;SDS011;44792;52.760;6.726;2022-08-05T09:10:27;4.68;;;1.10;;
59006;SDS011;44792;52.760;6.726;2022-08-05T09:12:53;7.32;;;1.60;;
59006;SDS011;44792;52.760;6.726;2022-08-05T09:15:19;2.50;;;1.00;;
59006;SDS011;44792;52.760;6.726;2022-08-05T09:17:45;4.35;;;1.20;;
59006;SDS011;44792;52.760;6.726;2022-08-05T09:20:11;3.15;;;1.08;;
59006;SDS011;44792;52.760;6.726;2022-08-05T09:25:35;4.85;;;1.20;;
59006;SDS011;44792;52.760;6.726;2022-08-05T09:28:07;4.30;;;1.13;;
59006;SDS011;44792;52.760;6.726;2022-08-05T09:30:43;3.75;;;1.00;;
59006;SDS011;44792;52.760;6.726;2022-08-05T09:33:15;6.82;;;1.10;;
59006;SDS011;44792;52.760;6.726;2022-08-05T09:35:51;6.80;;;1.15;;
59006;SDS011;44792;52.760;6.726;2022-08-05T09:38:24;3.53;;;0.93;;
59006;SDS011;44792;52.760;6.726;2022-08-05T09:40:49;5.90;;;0.93;;
59006;SDS011;44792;52.760;6.726;2022-08-05T09:43:37;2.58;;;1.23;;
59006;SDS011;44792;52.760;6.726;2022-08-05T09:46:04;2.22;;;0.68;;
59006;SDS011;44792;52.760;6.726;2022-08-05T09:48:31;4.00;;;1.10;;
59006;SDS011;44792;52.760;6.726;2022-08-05T09:51:03;3.15;;;1.05;;
59006;SDS011;44792;52.760;6.726;2022-08-05T09:53:45;6.28;;;0.90;;
59006;SDS011;44792;52.760;6.726;2022-08-05T09:56:12;2.22;;;0.88;;
59006;SDS011;44792;52.760;6.726;2022-08-05T09:58:38;2.10;;;0.80;;
59006;SDS011;44792;52.760;6.726;2022-08-05T10:01:04;2.60;;;0.73;;
59006;SDS011;44792;52.760;6.726;2022-08-05T10:03:31;2.58;;;0.80;;
59006;SDS011;44792;52.760;6.726;2022-08-05T10:06:04;2.80;;;0.70;;
59006;SDS011;44792;52.760;6.726;2022-08-05T10:08:32;1.85;;;0.70;;
59006;SDS011;44792;52.760;6.726;2022-08-05T10:10:58;2.65;;;0.60;;
59006;SDS011;44792;52.760;6.726;2022-08-05T10:16:00;1.67;;;0.80;;
59006;SDS011;44792;52.760;6.726;2022-08-05T10:18:26;1.65;;;0.77;;
59006;SDS011;44792;52.760;6.726;2022-08-05T10:20:53;2.35;;;0.70;;
59006;SDS011;44792;52.760;6.726;2022-08-05T10:23:31;1.25;;;0.57;;
59006;SDS011;44792;52.760;6.726;2022-08-05T10:26:05;1.17;;;0.50;;
59006;SDS011;44792;52.760;6.726;2022-08-05T10:28:33;2.05;;;0.52;;
59006;SDS011;44792;52.760;6.726;2022-08-05T10:31:00;4.03;;;0.50;;
59006;SDS011;44792;52.760;6.726;2022-08-05T10:33:28;1.33;;;0.73;;
59006;SDS011;44792;52.760;6.726;2022-08-05T10:35:55;2.25;;;0.60;;
59006;SDS011;44792;52.760;6.726;2022-08-05T10:38:22;3.00;;;0.70;;
59006;SDS011;44792;52.760;6.726;2022-08-05T10:43:36;1.15;;;0.60;;
59006;SDS011;44792;52.760;6.726;2022-08-05T10:46:05;1.40;;;0.55;;
59006;SDS011;44792;52.760;6.726;2022-08-05T10:51:12;1.42;;;0.60;;
59006;SDS011;44792;52.760;6.726;2022-08-05T10:53:58;1.23;;;0.60;;
59006;SDS011;44792;52.760;6.726;2022-08-05T10:56:26;2.88;;;0.57;;
59006;SDS011;44792;52.760;6.726;2022-08-05T10:59:02;1.63;;;0.50;;
59006;SDS011;44792;52.760;6.726;2022-08-05T11:01:30;1.08;;;0.55;;
59006;SDS011;44792;52.760;6.726;2022-08-05T11:04:12;2.75;;;0.60;;
59006;SDS011;44792;52.760;6.726;2022-08-05T11:09:22;1.23;;;0.50;;
59006;SDS011;44792;52.760;6.726;2022-08-05T11:11:50;0.88;;;0.52;;
59006;SDS011;44792;52.760;6.726;2022-08-05T11:14:24;1.20;;;0.50;;
59006;SDS011;44792;52.760;6.726;2022-08-05T11:19:51;1.42;;;0.40;;
59006;SDS011;44792;52.760;6.726;2022-08-05T11:31:16;0.88;;;0.50;;
59006;SDS011;44792;52.760;6.726;2022-08-05T11:33:29;3.58;;;0.60;;
59006;SDS011;44792;52.760;6.726;2022-08-05T11:36:01;1.63;;;0.40;;
59006;SDS011;44792;52.760;6.726;2022-08-05T11:43:52;1.63;;;0.40;;
59006;SDS011;44792;52.760;6.726;2022-08-05T11:48:57;0.50;;;0.40;;
59006;SDS011;44792;52.760;6.726;2022-08-05T11:51:24;2.55;;;0.50;;
59006;SDS011;44792;52.760;6.726;2022-08-05T11:53:51;1.77;;;0.38;;
59006;SDS011;44792;52.760;6.726;2022-08-05T11:56:17;2.35;;;0.40;;
59006;SDS011;44792;52.760;6.726;2022-08-05T11:58:43;1.35;;;0.40;;
59006;SDS011;44792;52.760;6.726;2022-08-05T12:01:11;1.55;;;0.50;;
59006;SDS011;44792;52.760;6.726;2022-08-05T12:06:10;0.73;;;0.32;;
59006;SDS011;44792;52.760;6.726;2022-08-05T12:08:39;2.08;;;0.40;;
59006;SDS011;44792;52.760;6.726;2022-08-05T12:11:07;1.00;;;0.40;;
59006;SDS011;44792;52.760;6.726;2022-08-05T12:13:33;1.02;;;0.38;;
59006;SDS011;44792;52.760;6.726;2022-08-05T12:16:01;0.35;;;0.35;;
59006;SDS011;44792;52.760;6.726;2022-08-05T12:18:32;4.55;;;0.40;;
59006;SDS011;44792;52.760;6.726;2022-08-05T12:26:30;1.95;;;0.50;;
59006;SDS011;44792;52.760;6.726;2022-08-05T12:28:56;1.08;;;0.40;;
59006;SDS011;44792;52.760;6.726;2022-08-05T12:31:21;2.15;;;0.30;;
59006;SDS011;44792;52.760;6.726;2022-08-05T12:33:47;3.58;;;0.82;;
59006;SDS011;44792;52.760;6.726;2022-08-05T12:36:13;0.82;;;0.40;;
59006;SDS011;44792;52.760;6.726;2022-08-05T12:38:39;0.85;;;0.40;;
59006;SDS011;44792;52.760;6.726;2022-08-05T12:41:08;1.17;;;0.40;;
59006;SDS011;44792;52.760;6.726;2022-08-05T12:43:58;1.43;;;0.60;;
59006;SDS011;44792;52.760;6.726;2022-08-05T12:46:27;1.67;;;0.20;;
59006;SDS011;44792;52.760;6.726;2022-08-05T12:51:27;3.47;;;0.80;;
59006;SDS011;44792;52.760;6.726;2022-08-05T12:53:59;1.10;;;0.50;;
59006;SDS011;44792;52.760;6.726;2022-08-05T12:56:26;2.92;;;0.70;;
59006;SDS011;44792;52.760;6.726;2022-08-05T13:01:42;0.88;;;0.50;;
59006;SDS011;44792;52.760;6.726;2022-08-05T13:04:16;4.13;;;0.47;;
59006;SDS011;44792;52.760;6.726;2022-08-05T13:06:42;1.70;;;0.60;;
59006;SDS011;44792;52.760;6.726;2022-08-05T13:09:09;3.38;;;0.40;;
59006;SDS011;44792;52.760;6.726;2022-08-05T13:11:37;1.80;;;0.52;;
59006;SDS011;44792;52.760;6.726;2022-08-05T13:14:23;2.05;;;0.30;;
59006;SDS011;44792;52.760;6.726;2022-08-05T13:16:50;2.05;;;0.47;;
59006;SDS011;44792;52.760;6.726;2022-08-05T13:19:19;2.65;;;0.45;;
59006;SDS011;44792;52.760;6.726;2022-08-05T13:21:46;1.58;;;0.50;;
59006;SDS011;44792;52.760;6.726;2022-08-05T13:24:12;4.95;;;0.60;;
59006;SDS011;44792;52.760;6.726;2022-08-05T13:26:37;0.68;;;0.30;;
59006;SDS011;44792;52.760;6.726;2022-08-05T13:29:03;0.88;;;0.40;;
59006;SDS011;44792;52.760;6.726;2022-08-05T13:31:29;3.25;;;0.65;;
59006;SDS011;44792;52.760;6.726;2022-08-05T13:33:54;0.98;;;0.40;;
59006;SDS011;44792;52.760;6.726;2022-08-05T13:36:20;0.63;;;0.30;;
59006;SDS011;44792;52.760;6.726;2022-08-05T13:38:46;3.20;;;0.50;;
59006;SDS011;44792;52.760;6.726;2022-08-05T13:41:11;1.17;;;0.60;;
59006;SDS011;44792;52.760;6.726;2022-08-05T13:43:37;4.85;;;0.45;;
59006;SDS011;44792;52.760;6.726;2022-08-05T13:46:03;2.33;;;0.50;;
59006;SDS011;44792;52.760;6.726;2022-08-05T13:48:28;2.47;;;0.30;;
59006;SDS011;44792;52.760;6.726;2022-08-05T13:50:54;0.68;;;0.32;;
59006;SDS011;44792;52.760;6.726;2022-08-05T13:53:28;3.03;;;0.55;;
59006;SDS011;44792;52.760;6.726;2022-08-05T13:55:54;2.00;;;0.32;;
59006;SDS011;44792;52.760;6.726;2022-08-05T13:58:22;1.73;;;0.50;;
59006;SDS011;44792;52.760;6.726;2022-08-05T14:00:48;2.40;;;0.40;;
59006;SDS011;44792;52.760;6.726;2022-08-05T14:03:13;1.08;;;0.57;;
59006;SDS011;44792;52.760;6.726;2022-08-05T14:05:39;1.08;;;0.40;;
59006;SDS011;44792;52.760;6.726;2022-08-05T14:08:04;1.88;;;0.43;;
59006;SDS011;44792;52.760;6.726;2022-08-05T14:10:30;3.25;;;0.55;;
59006;SDS011;44792;52.760;6.726;2022-08-05T14:12:56;0.77;;;0.40;;
59006;SDS011;44792;52.760;6.726;2022-08-05T14:15:22;2.17;;;0.43;;
59006;SDS011;44792;52.760;6.726;2022-08-05T14:17:49;2.22;;;0.50;;
59006;SDS011;44792;52.760;6.726;2022-08-05T14:20:14;1.33;;;0.32;;
59006;SDS011;44792;52.760;6.726;2022-08-05T14:22:40;1.23;;;0.40;;
59006;SDS011;44792;52.760;6.726;2022-08-05T14:25:07;2.45;;;0.50;;
59006;SDS011;44792;52.760;6.726;2022-08-05T14:27:33;1.52;;;0.40;;
59006;SDS011;44792;52.760;6.726;2022-08-05T14:29:59;3.03;;;0.50;;
59006;SDS011;44792;52.760;6.726;2022-08-05T14:32:25;0.93;;;0.47;;
59006;SDS011;44792;52.760;6.726;2022-08-05T14:34:51;1.58;;;0.70;;
59006;SDS011;44792;52.760;6.726;2022-08-05T14:37:16;1.25;;;0.40;;
59006;SDS011;44792;52.760;6.726;2022-08-05T14:39:42;1.13;;;0.40;;
59006;SDS011;44792;52.760;6.726;2022-08-05T14:42:07;0.90;;;0.60;;
59006;SDS011;44792;52.760;6.726;2022-08-05T14:44:33;0.82;;;0.30;;
59006;SDS011;44792;52.760;6.726;2022-08-05T14:46:59;1.65;;;0.50;;
59006;SDS011;44792;52.760;6.726;2022-08-05T14:49:24;1.42;;;0.47;;
59006;SDS011;44792;52.760;6.726;2022-08-05T14:51:50;0.30;;;0.30;;
59006;SDS011;44792;52.760;6.726;2022-08-05T14:54:15;3.55;;;0.70;;
59006;SDS011;44792;52.760;6.726;2022-08-05T14:56:41;0.43;;;0.38;;
59006;SDS011;44792;52.760;6.726;2022-08-05T14:59:07;0.50;;;0.40;;
59006;SDS011;44792;52.760;6.726;2022-08-05T15:01:33;1.02;;;0.43;;
59006;SDS011;44792;52.760;6.726;2022-08-05T15:03:58;2.78;;;0.50;;
59006;SDS011;44792;52.760;6.726;2022-08-05T15:06:24;1.38;;;0.50;;
59006;SDS011;44792;52.760;6.726;2022-08-05T15:08:49;1.55;;;0.43;;
59006;SDS011;44792;52.760;6.726;2022-08-05T15:11:15;1.17;;;0.40;;
59006;SDS011;44792;52.760;6.726;2022-08-05T15:13:41;1.80;;;0.40;;
59006;SDS011;44792;52.760;6.726;2022-08-05T15:16:07;3.67;;;0.73;;
59006;SDS011;44792;52.760;6.726;2022-08-05T15:18:33;2.85;;;0.70;;
59006;SDS011;44792;52.760;6.726;2022-08-05T15:20:59;6.10;;;1.00;;
59006;SDS011;44792;52.760;6.726;2022-08-05T15:23:25;5.90;;;0.50;;
59006;SDS011;44792;52.760;6.726;2022-08-05T15:25:51;3.95;;;0.50;;
59006;SDS011;44792;52.760;6.726;2022-08-05T15:28:16;3.55;;;0.60;;
59006;SDS011;44792;52.760;6.726;2022-08-05T15:30:42;7.90;;;0.70;;
59006;SDS011;44792;52.760;6.726;2022-08-05T15:33:08;3.90;;;0.95;;
59006;SDS011;44792;52.760;6.726;2022-08-05T15:35:34;3.42;;;0.55;;
59006;SDS011;44792;52.760;6.726;2022-08-05T15:38:00;4.25;;;0.80;;
59006;SDS011;44792;52.760;6.726;2022-08-05T15:40:26;1.80;;;0.70;;